Tiempo atmosférico en la estación meteorológica de Bailén, Jaén (345 m.)



Fecha
DESCASC
Temp. máxima en grados centígrados (hora)
DESCASC
Temp. mínima en grados centígrados (hora)
DESCASC
Temp. media en grados centígrados
DESCASC
Racha de viento máxima en m/sg (hora)
DESCASC
Velocidad máxima media en intervalos de 10 minutos(hora)
DESCASC
Precipitaciones diarias en mm
DESCASC
Precipitaciones de 00:00 a 06:00 en mm
DESCASC
Precipitaciones de 06:00 a 12:00 en mm
DESCASC
Precipitaciones de 12:00 a 18:00 en mm
DESCASC
Precipitaciones de 18:00 a 24:00 en mm
DESCASC
18-01-2018 17.8 (15:10) 7.1 (07:20) 12.4 7.78 (04:40) 4.44 (08:50) 0 0 0 0 0
17-01-2018 19.3 (15:30) 2.3 (06:00) 10.8 7.5 (16:20) 3.89 (18:30) 0 0 0 0 0
16-01-2018 14 (15:40) 0.6 (07:40) 7.3 3.06 (23:59) 2.22 (23:50) 0 0 0 0 0
15-01-2018 13.5 (14:40) 0.5 (07:30) 7 4.17 (13:20) 2.22 (10:20) 0 0 0 0 0
14-01-2018 8.5 (12:40) 4.7 (00:00) 6.6 3.89 (00:50) 1.39 (05:10) 6.6 0.8 0 5.6 0.2
13-01-2018 9.5 (14:00) 2.3 (00:00) 5.9 3.61 (13:50) 1.67 (00:50) 2.2 0 0 2.2 0
12-01-2018 14.1 (14:30) 0 (00:00) 7.1 5.28 (14:50) 2.5 (14:40) 0.2 0 0 0.2 0
11-01-2018 11.8 (16:40) 4 (00:00) 7.9 6.67 (14:20) 2.22 (13:50) 0.4 0 0.4 0 0
10-01-2018 13.5 (15:20) 6.7 (00:00) 10.1 6.67 (21:40) 3.33 (21:40) 10.2 2.4 0.2 0 7.6
09-01-2018 7.4 (15:30) 0.1 (00:00) 3.8 3.89 (21:00) 2.22 (20:20) 0.6 0 0 0 0.6
08-01-2018 12.8 (15:10) 3 (00:00) 7.9 5 (09:40) 2.78 (09:50) 0 0 0 0 0
07-01-2018 5.5 (13:00) 1.6 (00:00) 3.6 5.28 (14:10) 2.5 (16:30) 0.2 0 0 0 0.2
06-01-2018 11.6 (03:20) 5.4 (00:00) 8.5 6.11 (05:30) 3.06 (05:00) 12.8 0 4 8.8 0
05-01-2018 13.1 (15:30) 10.6 (00:00) 11.9 5.56 (12:40) 2.5 (12:00) 0 0 0 0 0
04-01-2018 12.5 (13:30) 10.1 (07:40) 11.3 2.78 (02:20) 1.39 (11:40) 0 0 0 0 0
03-01-2018 13 (15:10) 7 (00:00) 10 2.5 (11:00) 1.39 (11:00) 0.2 0 0 0.2 0
02-01-2018 13.1 (16:10) 3 (00:00) 8.1 2.5 (23:10) 1.39 (23:10) 0 0 0 0 0
01-01-2018 12.3 (16:20) 4.3 (00:00) 8.3 3.89 (07:10) 2.22 (07:20) 0 0 0 0 0
31-12-2017 11 (19:50) 6.5 (00:00) 8.8 4.72 (16:10) 1.67 (16:10) 0.2 0 0 0 0.2
30-12-2017 19.5 (14:40) 9.4 (00:00) 14.4 2.78 (14:00) 1.39 (14:00) 0 0 0 0 0
29-12-2017 15.6 (15:30) 12 (00:00) 13.8 6.11 (10:40) 1.94 (15:00) 0.2 0.2 0 0 0
28-12-2017 15.5 (16:20) 8.7 (00:00) 12.1 6.67 (15:30) 2.22 (13:30) 2.8 1.8 1 0 0
27-12-2017 14.2 (15:10) 7.9 (00:00) 11 10.83 (04:30) 3.89 (16:40) 8.2 4.8 3.4 0 0
26-12-2017 11.9 (12:50) 8.5 (00:00) 10.2 6.39 (13:00) 3.06 (13:20) 3.8 2 1.8 0 0
25-12-2017 12.6 (14:40) 3.2 (00:00) 7.9 3.06 (00:20) 1.94 (00:20) 0 0 0 0 0
24-12-2017 18.2 (14:50) 4.2 (00:00) 11.2 4.72 (09:40) 2.78 (01:10) 0 0 0 0 0

Gráficas

Temp. máximas Temp. mínimas Temp. medias Precipitaciones Rachas de viento máximas Velocidades máximas media en intervalos de 10 minutos

Datos horarios

Fecha y hora oficial Temperatura (ºC) Velocidad del viento (km/h) Dirección del viento Racha (km/h) Dirección de racha Precipitación (mm) Presión (hPa) Tendencia (hPa) Humedad (%)
2018-01-22 23:00:00 9.4 0 Calma 3 Norte 0 -- -- 86
2018-01-22 22:00:00 10.3 2 Norte 4 Norte 0 -- -- 82
2018-01-22 21:00:00 10.9 0 Calma 3 Noroeste 0 -- -- 80
2018-01-22 20:00:00 12.6 0 Calma 3 Noroeste 0 -- -- 74
2018-01-22 19:00:00 13.6 0 Calma 2 Noroeste 0 -- -- 72
2018-01-22 18:00:00 15.9 2 Sudoeste 6 Sudoeste 0 -- -- 64
2018-01-22 17:00:00 18.1 3 Sudoeste 6 Sur 0 -- -- 58
2018-01-22 16:00:00 18 3 Sur 6 Sur 0 -- -- 57
2018-01-22 15:00:00 17.5 2 Sur 6 Sur 0 -- -- 58
2018-01-22 14:00:00 15.4 3 Sudeste 8 Este 0 -- -- 67
2018-01-22 13:00:00 12.9 3 Sur 6 Este 0 -- -- 74
2018-01-22 12:00:00 11.3 2 Este 6 Sudeste 0 -- -- 79
2018-01-22 11:00:00 8.3 2 Este 6 Nordeste 0 -- -- 97
2018-01-22 10:00:00 5.3 3 Sudeste 5 Sudeste 0 -- -- 98
2018-01-22 09:00:00 4.3 0 Calma 3 Oeste 0 -- -- 97
2018-01-22 08:00:00 4.5 0 Calma 2 Norte 0 -- -- 97
2018-01-22 07:00:00 4.7 0 Calma 10 Nordeste 0 -- -- 96
2018-01-22 06:00:00 5.1 0 Calma 8 Norte 0 -- -- 96
2018-01-22 05:00:00 5.5 3 Nordeste 7 Nordeste 0 -- -- 95
2018-01-22 04:00:00 5.6 3 Norte 5 Norte 0 -- -- 96
2018-01-22 03:00:00 6.1 0 Calma 5 Norte 0 -- -- 95
2018-01-22 02:00:00 7.1 3 Norte 7 Norte 0 -- -- 95
2018-01-22 01:00:00 6.9 0 Calma 4 Este 0 -- -- 93
2018-01-22 00:00:00 7.7 0 Calma 3 Norte 0 -- -- 92
2018-01-21 23:00:00 8.3 0 Calma 2 Sudeste 0 -- -- 90
2018-01-21 22:00:00 8.7 0 Calma 2 Sudeste 0 -- -- 88
2018-01-21 21:00:00 10.1 0 Calma 5 Sudeste 0 -- -- 83
2018-01-21 20:00:00 11.1 0 Calma 5 Noroeste 0 -- -- 80
2018-01-21 19:00:00 12.5 0 Calma 8 Oeste 0 -- -- 75
2018-01-21 18:00:00 14.2 2 Oeste 8 Sur 0 -- -- 66
2018-01-21 17:00:00 15.7 3 Sur 11 Sudoeste 0 -- -- 62
2018-01-21 16:00:00 16.2 4 Sudoeste 9 Noroeste 0 -- -- 63
2018-01-21 15:00:00 16 3 Sudeste 10 Sudoeste 0 -- -- 62
2018-01-21 14:00:00 14.1 3 Sur 9 Sur 0 -- -- 72
2018-01-21 13:00:00 12 3 Sudeste 9 Este 0 -- -- 78
2018-01-21 12:00:00 10.6 3 Nordeste 13 Norte 0 -- -- 84
2018-01-21 11:00:00 8.5 5 Nordeste 12 Nordeste 0 -- -- 93
2018-01-21 10:00:00 7 4 Nordeste 9 Nordeste 0 -- -- 96
2018-01-21 09:00:00 6.4 4 Nordeste 9 Norte 0 -- -- 97
2018-01-21 08:00:00 5.3 0 Calma 4 Nordeste 0 -- -- 96
2018-01-21 07:00:00 4.8 0 Calma 4 Nordeste 0 -- -- 97
2018-01-21 06:00:00 4.2 0 Calma 7 Nordeste 0 -- -- 96
2018-01-21 05:00:00 4.4 0 Calma 4 Norte 0 -- -- 96
2018-01-21 04:00:00 4.6 0 Calma 4 Nordeste 0 -- -- 95
2018-01-21 03:00:00 5.6 0 Calma 4 Norte 0 -- -- 94
2018-01-21 02:00:00 6.7 0 Calma 4 Oeste 0 -- -- 95
2018-01-21 01:00:00 6.9 0 Calma 5 Este 0 -- -- 92
2018-01-21 00:00:00 8.1 0 Calma 10 Oeste 0 -- -- 92
2018-01-20 23:00:00 8.7 3 Oeste 9 Noroeste 0 -- -- 88
2018-01-20 22:00:00 9.1 2 Oeste 9 Oeste 0 -- -- 86
2018-01-20 21:00:00 10.2 2 Oeste 8 Noroeste 0 -- -- 80
2018-01-20 20:00:00 11.1 2 Oeste 8 Noroeste 0 -- -- 77
2018-01-20 19:00:00 11.1 0 Calma 4 Sudoeste 0 -- -- 79
2018-01-20 18:00:00 13.7 0 Calma 8 Oeste 0 -- -- 69
2018-01-20 17:00:00 14.5 2 Sudoeste 10 Sur 0 -- -- 65
2018-01-20 16:00:00 15.5 3 Sudoeste 10 Sur 0 -- -- 61
2018-01-20 15:00:00 15.2 2 Sudoeste 8 Noroeste 0 -- -- 63
2018-01-20 14:00:00 13.3 3 Sudoeste 5 Sur 0 -- -- 67
2018-01-20 13:00:00 11.5 0 Calma 6 Sudeste 0 -- -- 70
2018-01-20 12:00:00 10.2 2 Sudeste 6 Este 0 -- -- 73
2018-01-20 11:00:00 6.9 0 Calma 6 Sudeste 0 -- -- 90
2018-01-20 10:00:00 4.2 0 Calma 4 Sudeste 0 -- -- 96
2018-01-20 09:00:00 3.2 0 Calma 2 Norte 0 -- -- 96
2018-01-20 08:00:00 3.1 0 Calma 9 Nordeste 0 -- -- 96
2018-01-20 07:00:00 3.2 0 Calma 4 Nordeste 0 -- -- 95
2018-01-20 06:00:00 4 0 Calma 5 Norte 0 -- -- 95
2018-01-20 05:00:00 4.2 0 Calma 3 Este 0 -- -- 95
2018-01-20 04:00:00 4.5 0 Calma 2 Sudeste 0 -- -- 94
2018-01-20 03:00:00 5.3 0 Calma 3 Nordeste 0 -- -- 93
2018-01-20 02:00:00 5.5 0 Calma 7 Nordeste 0 -- -- 93
2018-01-20 01:00:00 6.2 0 Calma 6 Nordeste 0 -- -- 90
2018-01-20 00:00:00 7.1 0 Calma 3 Norte 0 -- -- 89
2018-01-19 23:00:00 8 0 Calma 3 Norte 0 -- -- 85
2018-01-19 22:00:00 8.5 0 Calma 2 Norte 0 -- -- 85
2018-01-19 21:00:00 9.8 0 Calma 3 Este 0 -- -- 79
2018-01-19 20:00:00 10.4 0 Calma 3 Norte 0 -- -- 77
2018-01-19 19:00:00 11.9 0 Calma 5 Sur 0 -- -- 72
2018-01-19 18:00:00 14 3 Sur 6 Sur 0 -- -- 64
2018-01-19 17:00:00 15.9 2 Sudoeste 10 Sur 0 -- -- 56
2018-01-19 16:00:00 16.3 3 Sudoeste 13 Sur 0 -- -- 56
2018-01-19 15:00:00 16.8 4 Sur 10 Sur 0 -- -- 55
2018-01-19 14:00:00 15.1 2 Sudeste 8 Norte 0 -- -- 60
2018-01-19 13:00:00 12.5 3 Norte 7 Norte 0 -- -- 67
2018-01-19 12:00:00 10.8 0 Calma 5 Este 0 -- -- 76
2018-01-19 11:00:00 7.7 0 Calma 5 Sudeste 0 -- -- 90
2018-01-19 10:00:00 6.9 0 Calma 3 Oeste 0 -- -- 91
2018-01-19 09:00:00 5.8 0 Calma 0 Calma 0 -- -- 93
2018-01-19 08:00:00 6 0 Calma 3 Norte 0 -- -- 92
2018-01-19 07:00:00 6.2 0 Calma 3 Oeste 0 -- -- 90
2018-01-19 06:00:00 6.4 0 Calma 6 Este 0 -- -- 90
2018-01-19 05:00:00 6.7 0 Calma 3 Sudeste 0 -- -- 88
2018-01-19 04:00:00 7 0 Calma 4 Norte 0 -- -- 87
2018-01-19 03:00:00 7.3 0 Calma 6 Norte 0 -- -- 86
2018-01-19 02:00:00 8.2 0 Calma 11 Norte 0 -- -- 82
2018-01-19 01:00:00 8.1 3 Este 10 Nordeste 0 -- -- 81
2018-01-19 00:00:00 8.3 0 Calma 6 Norte 0 -- -- 83
2018-01-18 23:00:00 8.5 0 Calma 4 Sudeste 0 -- -- 83
2018-01-18 22:00:00 9.1 0 Calma 8 Norte 0 -- -- 79
2018-01-18 21:00:00 10 3 Norte 4 Nordeste 0 -- -- 75
2018-01-18 20:00:00 11.1 0 Calma 8 Oeste 0 -- -- 70
2018-01-18 19:00:00 12.7 3 Norte 10 Norte 0 -- -- 61
2018-01-18 18:00:00 14.2 5 Norte 9 Norte 0 -- -- 57
2018-01-18 17:00:00 15.8 0 Calma 10 Nordeste 0 -- -- 54
2018-01-18 16:00:00 17.4 7 Nordeste 16 Norte 0 -- -- 49
2018-01-18 15:00:00 17.7 10 Nordeste 21 Nordeste 0 -- -- 48
2018-01-18 14:00:00 16.5 9 Este 20 Este 0 -- -- 52
2018-01-18 13:00:00 15.3 11 Nordeste 22 Este 0 -- -- 56
2018-01-18 12:00:00 14.2 10 Este 26 Este 0 -- -- 58
2018-01-18 11:00:00 11.1 8 Nordeste 23 Nordeste 0 -- -- 65
2018-01-18 10:00:00 8.4 14 Nordeste 24 Nordeste 0 -- -- 69
2018-01-18 09:00:00 7.5 15 Nordeste 24 Nordeste 0 -- -- 69
2018-01-18 08:00:00 7.2 13 Nordeste 24 Nordeste 0 -- -- 70
2018-01-18 07:00:00 7.3 11 Nordeste 22 Nordeste 0 -- -- 71
2018-01-18 06:00:00 7.8 13 Nordeste 24 Norte 0 -- -- 69
2018-01-18 05:00:00 7.7 13 Nordeste 28 Nordeste 0 -- -- 70
2018-01-18 04:00:00 7.8 14 Nordeste 23 Nordeste 0 -- -- 70
2018-01-18 03:00:00 7.5 11 Nordeste 20 Nordeste 0 -- -- 72
2018-01-18 02:00:00 7.6 4 Nordeste 15 Nordeste 0 -- -- 71
2018-01-18 01:00:00 7.7 5 Nordeste 16 Nordeste 0 -- -- 71
2018-01-18 00:00:00 8 3 Este 9 Este 0 -- -- 72
2018-01-17 23:00:00 8.4 0 Calma 13 Nordeste 0 -- -- 69
2018-01-17 22:00:00 9.6 7 Nordeste 18 Este 0 -- -- 64
2018-01-17 21:00:00 10.5 5 Este 15 Nordeste 0 -- -- 63
2018-01-17 20:00:00 11.5 6 Nordeste 25 Nordeste 0 -- -- 59
2018-01-17 19:00:00 13.6 13 Nordeste 25 Nordeste 0 -- -- 52
2018-01-17 18:00:00 15.2 11 Nordeste 26 Este 0 -- -- 48
2018-01-17 17:00:00 17.8 12 Nordeste 27 Nordeste 0 -- -- 50
2018-01-17 16:00:00 19.1 11 Nordeste 24 Nordeste 0 -- -- 50
2018-01-17 15:00:00 19 9 Nordeste 20 Norte 0 -- -- 54
2018-01-17 14:00:00 16.5 6 Nordeste 17 Este 0 -- -- 63
2018-01-17 13:00:00 12.1 3 Este 9 Este 0 -- -- 74
2018-01-17 12:00:00 10 2 Nordeste 5 Nordeste 0 -- -- 77
2018-01-17 11:00:00 7 2 Sur 8 Este 0 -- -- 92
2018-01-17 10:00:00 3.9 4 Este 9 Este 0 -- -- 97
2018-01-17 09:00:00 3.1 0 Calma 9 Nordeste 0 -- -- 96
2018-01-17 08:00:00 2.8 2 Norte 6 Nordeste 0 -- -- 96
2018-01-17 07:00:00 2.9 4 Norte 6 Norte 0 -- -- 96
2018-01-17 06:00:00 2.3 0 Calma 2 Norte 0 -- -- 95
2018-01-17 05:00:00 2.7 0 Calma 3 Oeste 0 -- -- 95
2018-01-17 04:00:00 3.3 0 Calma 3 Norte 0 -- -- 94
2018-01-17 03:00:00 3.9 3 Norte 5 Norte 0 -- -- 95
2018-01-17 02:00:00 4 0 Calma 2 Oeste 0 -- -- 94
2018-01-17 01:00:00 4.8 0 Calma 7 Nordeste 0 -- -- 92
2018-01-17 00:00:00 5.7 5 Nordeste 11 Nordeste 0 -- -- 88
2018-01-16 23:00:00 5.7 0 Calma 8 Norte 0 -- -- 88
2018-01-16 22:00:00 6.7 0 Calma 4 Norte 0 -- -- 82
2018-01-16 21:00:00 7.8 4 Norte 5 Norte 0 -- -- 78
2018-01-16 20:00:00 8.7 2 Norte 4 Norte 0 -- -- 76
2018-01-16 19:00:00 9.8 0 Calma 2 Sur 0 -- -- 71
2018-01-16 18:00:00 11.6 0 Calma 5 Sudeste 0 -- -- 61
2018-01-16 17:00:00 13.4 2 Nordeste 6 Noroeste 0 -- -- 55
2018-01-16 16:00:00 13.8 3 Sur 6 Este 0 -- -- 54
2018-01-16 15:00:00 13.6 3 Sur 9 Sur 0 -- -- 59
2018-01-16 14:00:00 11.8 3 Sur 6 Sudeste 0 -- -- 67
2018-01-16 13:00:00 9.4 3 Sur 6 Este 0 -- -- 72
2018-01-16 12:00:00 8.6 2 Sudeste 8 Este 0 -- -- 74
2018-01-16 11:00:00 5.7 4 Este 8 Este 0 -- -- 90
2018-01-16 10:00:00 3.1 2 Sudeste 9 Nordeste 0 -- -- 97
2018-01-16 09:00:00 1.2 5 Nordeste 8 Norte 0 -- -- 97
2018-01-16 08:00:00 0.8 2 Nordeste 5 Nordeste 0 -- -- 96
2018-01-16 07:00:00 0.9 0 Calma 6 Nordeste 0 -- -- 96
2018-01-16 06:00:00 1 0 Calma 5 Nordeste 0 -- -- 95
2018-01-16 05:00:00 1.8 0 Calma 4 Norte 0 -- -- 94
2018-01-16 04:00:00 1.9 0 Calma 4 Norte 0 -- -- 95
2018-01-16 03:00:00 2 0 Calma 4 Nordeste 0 -- -- 95
2018-01-16 02:00:00 2.6 0 Calma 0 Calma 0 -- -- 95
2018-01-16 01:00:00 3.2 0 Calma 2 Oeste 0 -- -- 93
2018-01-16 00:00:00 3.9 0 Calma 5 Norte 0 -- -- 91
2018-01-15 23:00:00 4.4 2 Norte 5 Nordeste 0 -- -- 90
2018-01-15 22:00:00 5 0 Calma 5 Nordeste 0 -- -- 89
2018-01-15 21:00:00 6.4 2 Norte 4 Oeste 0 -- -- 84
2018-01-15 20:00:00 7.5 0 Calma 6 Noroeste 0 -- -- 79
2018-01-15 19:00:00 8.6 2 Noroeste 4 Sudoeste 0 -- -- 75
2018-01-15 18:00:00 10.1 2 Sur 6 Sudoeste 0 -- -- 69
2018-01-15 17:00:00 12 2 Sudoeste 7 Sur 0 -- -- 62
2018-01-15 16:00:00 12.2 3 Sur 8 Sur 0 -- -- 62
2018-01-15 15:00:00 13.1 3 Sudeste 15 Este 0 -- -- 61
2018-01-15 14:00:00 11.8 7 Este 15 Nordeste 0 -- -- 68
2018-01-15 13:00:00 8.9 7 Nordeste 14 Este 0 -- -- 75
2018-01-15 12:00:00 7.7 7 Este 15 Este 0 -- -- 80
2018-01-15 11:00:00 5.2 7 Nordeste 14 Nordeste 0 -- -- 99
2018-01-15 10:00:00 2.7 6 Nordeste 11 Nordeste 0 -- -- 99
2018-01-15 09:00:00 1.4 3 Nordeste 10 Norte 0 -- -- 99
2018-01-15 08:00:00 0.7 0 Calma 11 Nordeste 0 -- -- 99
2018-01-15 07:00:00 0.7 2 Nordeste 4 Nordeste 0 -- -- 98
2018-01-15 06:00:00 2.2 0 Calma 6 Norte 0 -- -- 98
2018-01-15 05:00:00 2.2 3 Nordeste 4 Norte 0 -- -- 98
2018-01-15 04:00:00 2.2 0 Calma 2 Noroeste 0 -- -- 97
2018-01-15 03:00:00 2.8 0 Calma 4 Norte 0 -- -- 97
2018-01-15 02:00:00 3.7 0 Calma 3 Nordeste 0 -- -- 97
2018-01-15 01:00:00 4.5 0 Calma 4 Nordeste 0 -- -- 97
2018-01-15 00:00:00 4.8 2 Nordeste 6 Este 0 -- -- 98
2018-01-14 23:00:00 5 0 Calma 5 Este 0 -- -- 97
2018-01-14 22:00:00 5.1 2 Este 5 Nordeste 0 -- -- 97
2018-01-14 21:00:00 5.4 0 Calma 5 Oeste 0.2 -- -- 96
2018-01-14 20:00:00 5.7 0 Calma 2 Sur 0 -- -- 96
2018-01-14 19:00:00 6 0 Calma 8 Sudeste 0 -- -- 95
2018-01-14 18:00:00 6.5 2 Sudeste 8 Sudeste 0.2 -- -- 94
2018-01-14 17:00:00 6.8 3 Sudeste 6 Este 0.4 -- -- 94
2018-01-14 16:00:00 6.7 0 Calma 5 Este 2 -- -- 94
2018-01-14 15:00:00 7.3 0 Calma 6 Oeste 2.2 -- -- 95
2018-01-14 14:00:00 7.9 3 Sur 7 Sur 0.6 -- -- 94
2018-01-14 13:00:00 8.3 2 Sur 4 Noroeste 0.2 -- -- 90
2018-01-14 12:00:00 8.1 0 Calma 7 Oeste 0 -- -- 91
2018-01-14 11:00:00 7.6 0 Calma 6 Oeste 0 -- -- 97
2018-01-14 10:00:00 6.9 0 Calma 5 Oeste 0 -- -- 98
2018-01-14 09:00:00 6.6 0 Calma 4 Sur 0 -- -- 98
2018-01-14 08:00:00 6.5 0 Calma 3 Sudoeste 0 -- -- 98
2018-01-14 07:00:00 6.5 0 Calma 4 Sudoeste 0 -- -- 98
2018-01-14 06:00:00 6.5 0 Calma 11 Noroeste 0 -- -- 98
2018-01-14 05:00:00 6.4 2 Oeste 8 Noroeste 0.2 -- -- 98
2018-01-14 04:00:00 6.5 3 Sudoeste 11 Noroeste 0.6 -- -- 98
2018-01-14 03:00:00 6.6 3 Oeste 10 Oeste 0 -- -- 98
2018-01-14 02:00:00 6.8 3 Sudoeste 12 Sudoeste 0 -- -- 98
2018-01-14 01:00:00 6.9 3 Sudoeste 14 Oeste 0 -- -- 97
2018-01-14 00:00:00 6.8 4 Sudoeste 11 Sudoeste 0 -- -- 97
2018-01-13 23:00:00 6.7 3 Sudoeste 10 Sudoeste 0 -- -- 97
2018-01-13 22:00:00 6.8 3 Sudoeste 11 Sudoeste 0 -- -- 97
2018-01-13 21:00:00 6.9 4 Sudoeste 10 Sudoeste 0 -- -- 96
2018-01-13 20:00:00 6.9 3 Oeste 11 Noroeste 0 -- -- 95
2018-01-13 19:00:00 6.8 2 Sudoeste 10 Noroeste 0 -- -- 95
2018-01-13 18:00:00 6.7 2 Oeste 7 Sudoeste 0 -- -- 94
2018-01-13 17:00:00 6.9 3 Sur 10 Sudoeste 0.4 -- -- 93
2018-01-13 16:00:00 7.4 4 Sudoeste 10 Sudoeste 1.6 -- -- 91
2018-01-13 15:00:00 8.4 4 Oeste 13 Noroeste 0.2 -- -- 81
2018-01-13 14:00:00 9.5 4 Sudoeste 13 Sur 0 -- -- 74
2018-01-13 13:00:00 7.4 0 Calma 5 Noroeste 0 -- -- 78
2018-01-13 12:00:00 6.5 0 Calma 5 Este 0 -- -- 83
2018-01-13 11:00:00 5.9 0 Calma 6 Este 0 -- -- 81
2018-01-13 10:00:00 4.7 0 Calma 5 Nordeste 0 -- -- 90
2018-01-13 09:00:00 2.4 0 Calma 6 Este 0 -- -- 94
2018-01-13 08:00:00 2.4 0 Calma 2 Este 0 -- -- 93
2018-01-13 07:00:00 2.6 0 Calma 4 Este 0 -- -- 92
2018-01-13 06:00:00 3.2 0 Calma 2 Sudoeste 0 -- -- 91
2018-01-13 05:00:00 3.3 0 Calma 5 Nordeste 0 -- -- 90
2018-01-13 04:00:00 3 0 Calma 10 Nordeste 0 -- -- 90
2018-01-13 03:00:00 3 0 Calma 5 Este 0 -- -- 91
2018-01-13 02:00:00 3.3 0 Calma 8 Norte 0 -- -- 89
2018-01-13 01:00:00 3.6 5 Nordeste 10 Nordeste 0 -- -- 89
2018-01-13 00:00:00 3.6 0 Calma 2 Sudoeste 0 -- -- 88
2018-01-12 23:00:00 4.4 0 Calma 5 Nordeste 0 -- -- 87
2018-01-12 22:00:00 5.8 0 Calma 6 Norte 0 -- -- 81
2018-01-12 21:00:00 7 3 Norte 8 Nordeste 0 -- -- 76
2018-01-12 20:00:00 7.1 0 Calma 5 Norte 0 -- -- 76
2018-01-12 19:00:00 8.8 3 Norte 5 Norte 0 -- -- 68
2018-01-12 18:00:00 10.3 3 Norte 7 Este 0 -- -- 64
2018-01-12 17:00:00 12.3 5 Este 10 Nordeste 0 -- -- 53
2018-01-12 16:00:00 13.6 5 Este 16 Este 0 -- -- 52
2018-01-12 15:00:00 13.9 6 Este 19 Este 0 -- -- 50
2018-01-12 14:00:00 12.5 7 Este 15 Este 0 -- -- 66
2018-01-12 13:00:00 8.9 4 Nordeste 10 Nordeste 0.2 -- -- 77
2018-01-12 12:00:00 7.1 3 Sudeste 8 Sudeste 0 -- -- 83
2018-01-12 11:00:00 4.8 2 Este 8 Nordeste 0 -- -- 95
2018-01-12 10:00:00 2.2 3 Este 7 Este 0 -- -- 99
2018-01-12 09:00:00 0.3 0 Calma 6 Norte 0 -- -- 97
2018-01-12 08:00:00 0.1 0 Calma 6 Nordeste 0 -- -- 97
2018-01-12 07:00:00 0.7 0 Calma 8 Norte 0 -- -- 96
2018-01-12 06:00:00 1.2 0 Calma 11 Nordeste 0 -- -- 96
2018-01-12 05:00:00 1.5 5 Nordeste 9 Nordeste 0 -- -- 96
2018-01-12 04:00:00 1.3 2 Sudeste 10 Nordeste 0 -- -- 95
2018-01-12 03:00:00 2 0 Calma 5 Nordeste 0 -- -- 94
2018-01-12 02:00:00 2.4 0 Calma 3 Norte 0 -- -- 94
2018-01-12 01:00:00 3.2 0 Calma 6 Nordeste 0 -- -- 91
2018-01-12 00:00:00 4.1 0 Calma 8 Oeste 0 -- -- 90
2018-01-11 23:00:00 4.7 0 Calma 3 Este 0 -- -- 89
2018-01-11 22:00:00 5.1 2 Noroeste 5 Nordeste 0 -- -- 90
2018-01-11 21:00:00 6.1 2 Norte 5 Norte 0 -- -- 84
2018-01-11 20:00:00 7.9 2 Noroeste 11 Noroeste 0 -- -- 74
2018-01-11 19:00:00 8.7 6 Oeste 14 Oeste 0 -- -- 75
2018-01-11 18:00:00 9.4 2 Sudoeste 11 Oeste 0 -- -- 83
2018-01-11 17:00:00 10.9 5 Sudoeste 19 Sudoeste 0 -- -- 75
2018-01-11 16:00:00 11 7 Sudoeste 21 Sudoeste 0 -- -- 76
2018-01-11 15:00:00 10.7 6 Sudoeste 24 Sur 0 -- -- 85
2018-01-11 14:00:00 8.6 6 Sudoeste 21 Sudoeste 0 -- -- 89
2018-01-11 13:00:00 7.7 5 Sudoeste 15 Sudoeste 0 -- -- 92
2018-01-11 12:00:00 7.3 5 Sudoeste 11 Sudoeste 0.2 -- -- 93
2018-01-11 11:00:00 6.5 2 Sudoeste 9 Noroeste 0 -- -- 94
2018-01-11 10:00:00 5.7 3 Oeste 6 Oeste 0 -- -- 95
2018-01-11 09:00:00 4.9 2 Sudoeste 11 Oeste 0.2 -- -- 97
2018-01-11 08:00:00 4.3 3 Sudoeste 8 Sudoeste 0 -- -- 97
2018-01-11 07:00:00 4.3 0 Calma 6 Oeste 0 -- -- 95
2018-01-11 06:00:00 4.9 0 Calma 10 Sudoeste 0 -- -- 94
2018-01-11 05:00:00 5.7 3 Oeste 10 Sudoeste 0 -- -- 93
2018-01-11 04:00:00 6.2 3 Sudoeste 9 Sudoeste 0 -- -- 89
2018-01-11 03:00:00 6.9 3 Sudoeste 10 Sudoeste 0 -- -- 92
2018-01-11 02:00:00 7.6 2 Sudoeste 13 Oeste 0 -- -- 93
2018-01-11 01:00:00 8.3 6 Oeste 14 Oeste 0 -- -- 91
2018-01-11 00:00:00 8.4 3 Oeste 15 Noroeste 0 -- -- 92
2018-01-10 23:00:00 9.4 4 Oeste 19 Oeste 0 -- -- 87
2018-01-10 22:00:00 10.3 6 Oeste 24 Oeste 3.4 -- -- 88
2018-01-10 21:00:00 10.7 4 Oeste 15 Oeste 3.2 -- -- 96
2018-01-10 20:00:00 10.7 3 Oeste 18 Sudoeste 1 -- -- 91
2018-01-10 19:00:00 11.6 7 Sudoeste 19 Sudoeste 0 -- -- 83
2018-01-10 18:00:00 11.9 9 Sudoeste 20 Sudoeste 0 -- -- 80
2018-01-10 17:00:00 12.6 6 Sudoeste 21 Sur 0 -- -- 78
2018-01-10 16:00:00 12.5 4 Sudoeste 14 Sudoeste 0 -- -- 79
2018-01-10 15:00:00 12.6 5 Sudoeste 19 Sur 0 -- -- 81
2018-01-10 14:00:00 11.1 9 Sudoeste 21 Sudoeste 0 -- -- 86
2018-01-10 13:00:00 8.9 5 Sudoeste 18 Oeste 0 -- -- 98
2018-01-10 12:00:00 8.6 6 Sudoeste 17 Sudoeste 0 -- -- 99
2018-01-10 11:00:00 8 6 Sudoeste 16 Noroeste 0 -- -- 98
2018-01-10 10:00:00 7.8 4 Oeste 16 Sudoeste 0 -- -- 99
2018-01-10 09:00:00 7.3 3 Sudoeste 10 Sudoeste 0 -- -- 98
2018-01-10 08:00:00 7.1 0 Calma 4 Oeste 0.2 -- -- 98
2018-01-10 07:00:00 7 0 Calma 5 Oeste 0 -- -- 97
2018-01-10 06:00:00 7 2 Oeste 6 Oeste 0 -- -- 97
2018-01-10 05:00:00 7.3 0 Calma 4 Nordeste 0.4 -- -- 96
2018-01-10 04:00:00 7.3 3 Nordeste 10 Norte 0.6 -- -- 96
2018-01-10 03:00:00 7 4 Nordeste 10 Nordeste 0.8 -- -- 96
2018-01-10 02:00:00 6.8 6 Nordeste 12 Norte 0.4 -- -- 95
2018-01-10 01:00:00 6.7 6 Nordeste 13 Nordeste 0.2 -- -- 94
2018-01-10 00:00:00 6.7 6 Nordeste 13 Norte 0.2 -- -- 93
2018-01-09 23:00:00 6.7 6 Norte 12 Norte 0.4 -- -- 91
2018-01-09 22:00:00 6.9 4 Nordeste 12 Nordeste 0 -- -- 89
2018-01-09 21:00:00 7 8 Nordeste 14 Nordeste 0 -- -- 84
2018-01-09 20:00:00 6.9 4 Nordeste 11 Nordeste 0 -- -- 83
2018-01-09 19:00:00 6.9 4 Nordeste 10 Nordeste 0 -- -- 85
2018-01-09 18:00:00 7.1 3 Nordeste 8 Este 0 -- -- 83
2018-01-09 17:00:00 7.3 3 Este 9 Este 0 -- -- 81
2018-01-09 16:00:00 7.3 4 Este 8 Nordeste 0 -- -- 80
2018-01-09 15:00:00 7.1 0 Calma 9 Este 0 -- -- 80
2018-01-09 14:00:00 6.3 0 Calma 5 Sudeste 0 -- -- 83
2018-01-09 13:00:00 6.1 0 Calma 6 Este 0 -- -- 83
2018-01-09 12:00:00 5.5 0 Calma 5 Sudeste 0 -- -- 85
2018-01-09 11:00:00 4.2 0 Calma 5 Este 0 -- -- 87
2018-01-09 10:00:00 2.7 2 Este 5 Nordeste 0 -- -- 94
2018-01-09 09:00:00 0.4 0 Calma 0 Calma 0 -- -- 96
2018-01-09 08:00:00 0.4 0 Calma 3 Oeste 0 -- -- 95
2018-01-09 07:00:00 0.5 0 Calma 4 Nordeste 0 -- -- 94
2018-01-09 06:00:00 0.6 0 Calma 2 Noroeste 0 -- -- 94
2018-01-09 05:00:00 1.1 0 Calma 3 Este 0 -- -- 92
2018-01-09 04:00:00 2 0 Calma 2 Este 0 -- -- 90
2018-01-09 03:00:00 2.6 0 Calma 5 Noroeste 0 -- -- 88
2018-01-09 02:00:00 3.2 0 Calma 7 Nordeste 0 -- -- 84
2018-01-09 01:00:00 4.2 0 Calma 7 Norte 0 -- -- 80
2018-01-09 00:00:00 5.5 4 Norte 10 Norte 0 -- -- 76
2018-01-08 23:00:00 6 5 Norte 9 Norte 0 -- -- 77
2018-01-08 22:00:00 6.7 0 Calma 10 Nordeste 0 -- -- 75
2018-01-08 21:00:00 7.4 5 Nordeste 10 Nordeste 0 -- -- 74
2018-01-08 20:00:00 8 6 Norte 12 Noroeste 0 -- -- 70
2018-01-08 19:00:00 7.8 0 Calma 4 Norte 0 -- -- 71
2018-01-08 18:00:00 9 0 Calma 6 Nordeste 0 -- -- 65
2018-01-08 17:00:00 10.5 3 Nordeste 7 Este 0 -- -- 59
2018-01-08 16:00:00 11.7 3 Nordeste 8 Nordeste 0 -- -- 53
2018-01-08 15:00:00 12.5 3 Nordeste 11 Norte 0 -- -- 58
2018-01-08 14:00:00 9.3 2 Nordeste 10 Este 0 -- -- 68
2018-01-08 13:00:00 8.8 4 Este 9 Este 0 -- -- 69
2018-01-08 12:00:00 8.7 5 Este 13 Este 0 -- -- 72
2018-01-08 11:00:00 6.1 4 Nordeste 15 Nordeste 0 -- -- 86
2018-01-08 10:00:00 3.9 7 Nordeste 18 Nordeste 0 -- -- 88
2018-01-08 09:00:00 3.5 5 Norte 11 Norte 0 -- -- 92
2018-01-08 08:00:00 3 3 Este 6 Este 0 -- -- 93
2018-01-08 07:00:00 3.4 3 Nordeste 8 Este 0 -- -- 93
2018-01-08 06:00:00 3.4 3 Nordeste 10 Nordeste 0 -- -- 92
2018-01-08 05:00:00 3.2 0 Calma 5 Este 0 -- -- 94
2018-01-08 04:00:00 3.2 0 Calma 7 Este 0 -- -- 92
2018-01-08 03:00:00 4 3 Nordeste 9 Nordeste 0 -- -- 91
2018-01-08 02:00:00 3.9 3 Este 8 Nordeste 0 -- -- 92
2018-01-08 01:00:00 3.6 3 Nordeste 7 Nordeste 0 -- -- 93
2018-01-08 00:00:00 3.9 3 Nordeste 6 Este 0 -- -- 92
2018-01-07 23:00:00 3.9 0 Calma 5 Este 0 -- -- 95
2018-01-07 22:00:00 3.5 2 Este 4 Sudeste 0 -- -- 94
2018-01-07 21:00:00 3.8 0 Calma 2 Sudeste 0.2 -- -- 93
2018-01-07 20:00:00 4.4 0 Calma 2 Oeste 0 -- -- 90
2018-01-07 19:00:00 4.5 0 Calma 6 Noroeste 0 -- -- 86
2018-01-07 18:00:00 4.7 2 Oeste 10 Noroeste 0 -- -- 85
2018-01-07 17:00:00 5.1 4 Oeste 17 Noroeste 0 -- -- 83
2018-01-07 16:00:00 5.1 5 Oeste 17 Oeste 0 -- -- 82
2018-01-07 15:00:00 5.4 4 Oeste 19 Noroeste 0 -- -- 81
2018-01-07 14:00:00 5.4 6 Oeste 19 Oeste 0 -- -- 80
2018-01-07 13:00:00 5.5 5 Oeste 14 Noroeste 0 -- -- 80
2018-01-07 12:00:00 4.2 3 Sudoeste 12 Sudoeste 0 -- -- 82
2018-01-07 11:00:00 3.8 4 Sudoeste 10 Sudoeste 0 -- -- 86
2018-01-07 10:00:00 2.7 2 Sudoeste 9 Oeste 0 -- -- 90
2018-01-07 09:00:00 1.7 0 Calma 6 Sudoeste 0 -- -- 93
2018-01-07 08:00:00 2.4 0 Calma 6 Oeste 0 -- -- 91
2018-01-07 07:00:00 2.3 0 Calma 10 Oeste 0 -- -- 90
2018-01-07 06:00:00 2.4 3 Sudoeste 9 Oeste 0 -- -- 90
2018-01-07 05:00:00 2.4 0 Calma 8 Sudoeste 0 -- -- 89
2018-01-07 04:00:00 3.1 2 Sudoeste 11 Oeste 0 -- -- 88
2018-01-07 03:00:00 3.5 3 Sudoeste 13 Noroeste 0 -- -- 86
2018-01-07 02:00:00 4 4 Oeste 15 Sudoeste 0 -- -- 84
2018-01-07 01:00:00 5 5 Sudoeste 14 Oeste 0 -- -- 83
2018-01-07 00:00:00 5.4 3 Sudoeste 15 Sudoeste 0 -- -- 86
2018-01-06 23:00:00 6 5 Sudoeste 14 Oeste 0 -- -- 82
2018-01-06 22:00:00 6.2 4 Sudoeste 12 Sudoeste 0 -- -- 87
2018-01-06 21:00:00 5.7 3 Oeste 10 Oeste 0 -- -- 91
2018-01-06 20:00:00 5.9 3 Oeste 11 Sudoeste 0 -- -- 90
2018-01-06 19:00:00 6.7 0 Calma 7 Oeste 0 -- -- 95
2018-01-06 18:00:00 6.9 3 Oeste 12 Oeste 0 -- -- 94
2018-01-06 17:00:00 7.3 3 Sudoeste 10 Oeste 0 -- -- 95
2018-01-06 16:00:00 6.5 2 Sudoeste 11 Noroeste 0.6 -- -- 93
2018-01-06 15:00:00 5.8 0 Calma 10 Sur 2 -- -- 97
2018-01-06 14:00:00 5.5 3 Sudoeste 20 Oeste 3 -- -- 97
2018-01-06 13:00:00 5.6 5 Sudoeste 18 Sudoeste 3.2 -- -- 96
2018-01-06 12:00:00 5.8 6 Sudoeste 15 Sur 1 -- -- 95
2018-01-06 11:00:00 7 3 Sudoeste 8 Oeste 0.2 -- -- 93
2018-01-06 10:00:00 6.9 0 Calma 5 Oeste 1.2 -- -- 94
2018-01-06 09:00:00 7.1 0 Calma 13 Oeste 1.2 -- -- 93
2018-01-06 08:00:00 7.6 5 Oeste 14 Oeste 0 -- -- 95
2018-01-06 07:00:00 8.5 4 Sudoeste 19 Sudoeste 0.4 -- -- 93
2018-01-06 06:00:00 9.5 5 Oeste 22 Noroeste 0 -- -- 87
2018-01-06 05:00:00 11.2 11 Oeste 17 Noroeste 0 -- -- 79
2018-01-06 04:00:00 11.2 4 Nordeste 10 Sudoeste 0 -- -- 78
2018-01-06 03:00:00 11.2 4 Sudoeste 12 Sudeste 0 -- -- 75
2018-01-06 02:00:00 10.6 2 Sudoeste 9 Nordeste 0 -- -- 84
2018-01-06 01:00:00 10.8 3 Norte 5 Nordeste 0 -- -- 84
2018-01-06 00:00:00 11.3 2 Sudeste 6 Oeste 0 -- -- 77
2018-01-05 23:00:00 11.4 0 Calma 5 Sudoeste 0 -- -- 79
2018-01-05 22:00:00 11.4 0 Calma 4 Sudoeste 0 -- -- 81
2018-01-05 21:00:00 11.5 0 Calma 4 Sudoeste 0 -- -- 81
2018-01-05 20:00:00 11.4 2 Sudeste 4 Sudeste 0 -- -- 83
2018-01-05 19:00:00 11.8 0 Calma 4 Sur 0 -- -- 81
2018-01-05 18:00:00 12.3 0 Calma 8 Oeste 0 -- -- 79
2018-01-05 17:00:00 12.7 0 Calma 10 Sudoeste 0 -- -- 77
2018-01-05 16:00:00 12.8 4 Sudoeste 13 Sur 0 -- -- 75
2018-01-05 15:00:00 12.6 6 Sudoeste 17 Sudoeste 0 -- -- 75
2018-01-05 14:00:00 12.5 7 Sudoeste 15 Sur 0 -- -- 76
2018-01-05 13:00:00 12.3 7 Sudoeste 20 Sudoeste 0 -- -- 77
2018-01-05 12:00:00 11.4 9 Sudoeste 19 Sudoeste 0 -- -- 89
2018-01-05 11:00:00 11.4 5 Sudoeste 13 Sur 0 -- -- 91
2018-01-05 10:00:00 11 5 Sudoeste 13 Sur 0 -- -- 93
2018-01-05 09:00:00 10.8 5 Sudoeste 9 Sur 0 -- -- 95
2018-01-05 08:00:00 10.8 4 Sudoeste 12 Sur 0 -- -- 95
2018-01-05 07:00:00 10.7 4 Sudoeste 8 Sur 0 -- -- 95
2018-01-05 06:00:00 10.6 2 Sudoeste 6 Sur 0 -- -- 95
2018-01-05 05:00:00 10.6 3 Sur 6 Sur 0 -- -- 95
2018-01-05 04:00:00 10.7 0 Calma 5 Sudoeste 0 -- -- 94
2018-01-05 03:00:00 10.8 0 Calma 4 Sudoeste 0 -- -- 94
2018-01-05 02:00:00 10.8 0 Calma 3 Oeste 0 -- -- 94
2018-01-05 01:00:00 10.8 0 Calma 3 Oeste 0 -- -- 93
2018-01-05 00:00:00 11 2 Noroeste 4 Noroeste 0 -- -- 92
2018-01-04 23:00:00 10.9 0 Calma 4 Sur 0 -- -- 92
2018-01-04 22:00:00 11.1 0 Calma 5 Sur 0 -- -- 92
2018-01-04 21:00:00 11.3 0 Calma 5 Sur 0 -- -- 91
2018-01-04 20:00:00 11.5 2 Noroeste 6 Noroeste 0 -- -- 89
2018-01-04 19:00:00 11.5 0 Calma 5 Sur 0 -- -- 88
2018-01-04 18:00:00 11.7 2 Sur 8 Sur 0 -- -- 86
2018-01-04 17:00:00 11.9 0 Calma 9 Sur 0 -- -- 85
2018-01-04 16:00:00 11.9 3 Sur 7 Sur 0 -- -- 84
2018-01-04 15:00:00 12.1 2 Sudoeste 6 Sur 0 -- -- 84
2018-01-04 14:00:00 12.3 3 Oeste 5 Noroeste 0 -- -- 83
2018-01-04 13:00:00 12.1 0 Calma 7 Sudeste 0 -- -- 83
2018-01-04 12:00:00 11.5 2 Sur 10 Sudeste 0 -- -- 85
2018-01-04 11:00:00 10.6 2 Sur 6 Sur 0 -- -- 89
2018-01-04 10:00:00 10.3 0 Calma 6 Sudeste 0 -- -- 91
2018-01-04 09:00:00 10.1 0 Calma 3 Sudeste 0 -- -- 92
2018-01-04 08:00:00 10.2 0 Calma 2 Sur 0 -- -- 92
2018-01-04 07:00:00 10.2 0 Calma 5 Sudeste 0 -- -- 91
2018-01-04 06:00:00 10.3 0 Calma 4 Nordeste 0 -- -- 90
2018-01-04 05:00:00 10.4 2 Nordeste 8 Nordeste 0 -- -- 90
2018-01-04 04:00:00 10.4 2 Nordeste 5 Norte 0 -- -- 89
2018-01-04 03:00:00 10.5 2 Este 10 Sudeste 0 -- -- 89
2018-01-04 02:00:00 10.7 3 Sudeste 6 Sudeste 0 -- -- 89
2018-01-04 01:00:00 10.9 3 Sudeste 8 Este 0 -- -- 89
2018-01-04 00:00:00 11.1 3 Nordeste 7 Norte 0 -- -- 88
2018-01-03 23:00:00 11.1 0 Calma 2 Noroeste 0 -- -- 88
2018-01-03 22:00:00 11.2 0 Calma 2 Norte 0 -- -- 88
2018-01-03 21:00:00 11.2 0 Calma 2 Sur 0 -- -- 89
2018-01-03 20:00:00 11.4 0 Calma 2 Sudeste 0 -- -- 87
2018-01-03 19:00:00 11.7 0 Calma 3 Sur 0 -- -- 85
2018-01-03 18:00:00 12.1 0 Calma 8 Sudeste 0.2 -- -- 83
2018-01-03 17:00:00 12.7 2 Sur 7 Sudeste 0 -- -- 80
2018-01-03 16:00:00 13 0 Calma 6 Noroeste 0 -- -- 78
2018-01-03 15:00:00 12.8 2 Norte 5 Sudoeste 0 -- -- 77
2018-01-03 14:00:00 12.8 2 Oeste 6 Sur 0 -- -- 76
2018-01-03 13:00:00 12.1 2 Sudeste 8 Nordeste 0 -- -- 79
2018-01-03 12:00:00 11.5 3 Este 8 Nordeste 0 -- -- 82
2018-01-03 11:00:00 10.2 5 Nordeste 9 Nordeste 0 -- -- 87
2018-01-03 10:00:00 8.8 0 Calma 4 Este 0 -- -- 91
2018-01-03 09:00:00 7.8 0 Calma 4 Sudeste 0 -- -- 92
2018-01-03 08:00:00 7.8 2 Sudeste 4 Este 0 -- -- 91
2018-01-03 07:00:00 7.8 3 Este 4 Este 0 -- -- 89
2018-01-03 06:00:00 7.6 0 Calma 4 Nordeste 0 -- -- 89
2018-01-03 05:00:00 7.4 3 Nordeste 6 Este 0 -- -- 91
2018-01-03 04:00:00 7.5 0 Calma 3 Sur 0 -- -- 91
2018-01-03 03:00:00 7.8 0 Calma 5 Noroeste 0 -- -- 91
2018-01-03 02:00:00 7.8 0 Calma 3 Nordeste 0 -- -- 90
2018-01-03 01:00:00 7.6 0 Calma 5 Sudeste 0 -- -- 91
2018-01-03 00:00:00 7 2 Sudeste 9 Nordeste 0 -- -- 94
2018-01-02 23:00:00 6.5 0 Calma 4 Nordeste 0 -- -- 91
2018-01-02 22:00:00 7.5 2 Norte 4 Norte 0 -- -- 88
2018-01-02 21:00:00 7.7 2 Norte 6 Nordeste 0 -- -- 87
2018-01-02 20:00:00 8.6 0 Calma 4 Noroeste 0 -- -- 85
2018-01-02 19:00:00 9.2 0 Calma 2 Noroeste 0 -- -- 83
2018-01-02 18:00:00 10.5 0 Calma 6 Sudeste 0 -- -- 76
2018-01-02 17:00:00 12.6 0 Calma 7 Sudeste 0 -- -- 69
2018-01-02 16:00:00 13 3 Sur 7 Sudeste 0 -- -- 68
2018-01-02 15:00:00 12.3 0 Calma 5 Sur 0 -- -- 73
2018-01-02 14:00:00 10.3 0 Calma 6 Nordeste 0 -- -- 78
2018-01-02 13:00:00 9.1 2 Este 5 Este 0 -- -- 83
2018-01-02 12:00:00 7.9 0 Calma 5 Este 0 -- -- 89
2018-01-02 11:00:00 6.7 0 Calma 4 Sudoeste 0 -- -- 94
2018-01-02 10:00:00 4.8 0 Calma 3 Sudeste 0 -- -- 98
2018-01-02 09:00:00 3.6 0 Calma 2 Sudeste 0 -- -- 97
2018-01-02 08:00:00 3.2 0 Calma 2 Norte 0 -- -- 97
2018-01-02 07:00:00 3.5 0 Calma 4 Nordeste 0 -- -- 96
2018-01-02 06:00:00 3.2 0 Calma 2 Nordeste 0 -- -- 96
2018-01-02 05:00:00 3.7 0 Calma 3 Oeste 0 -- -- 96
2018-01-02 04:00:00 3.9 0 Calma 3 Norte 0 -- -- 95
2018-01-02 03:00:00 3.9 0 Calma 3 Nordeste 0 -- -- 94
2018-01-02 02:00:00 4.6 0 Calma 4 Norte 0 -- -- 94
2018-01-02 01:00:00 5 0 Calma 5 Nordeste 0 -- -- 94
2018-01-02 00:00:00 5.9 0 Calma 3 Este 0 -- -- 93
2018-01-01 23:00:00 6.6 0 Calma 3 Norte 0 -- -- 90
2018-01-01 22:00:00 7 0 Calma 6 Este 0 -- -- 87
2018-01-01 21:00:00 7.9 0 Calma 4 Nordeste 0 -- -- 85
2018-01-01 20:00:00 7.9 0 Calma 4 Oeste 0 -- -- 86
2018-01-01 19:00:00 8.4 0 Calma 5 Sudoeste 0 -- -- 82
2018-01-01 18:00:00 10 0 Calma 7 Oeste 0 -- -- 80
2018-01-01 17:00:00 11.9 3 Sur 13 Sur 0 -- -- 68
2018-01-01 16:00:00 12.1 3 Sudoeste 9 Sur 0 -- -- 72
2018-01-01 15:00:00 10.6 0 Calma 6 Sur 0 -- -- 89
2018-01-01 14:00:00 9.1 2 Sur 6 Este 0 -- -- 95
2018-01-01 13:00:00 8.3 3 Sudeste 9 Nordeste 0 -- -- 98
2018-01-01 12:00:00 6.8 0 Calma 10 Este 0 -- -- 99
2018-01-01 11:00:00 6.2 0 Calma 6 Sudeste 0 -- -- 99
2018-01-01 10:00:00 5.6 3 Este 9 Este 0 -- -- 99
2018-01-01 09:00:00 5.3 4 Nordeste 10 Nordeste 0 -- -- 98
2018-01-01 08:00:00 5.7 0 Calma 14 Nordeste 0 -- -- 99
2018-01-01 07:00:00 5 8 Nordeste 12 Nordeste 0 -- -- 99
2018-01-01 06:00:00 5 0 Calma 4 Nordeste 0 -- -- 98
2018-01-01 05:00:00 5.7 4 Nordeste 9 Nordeste 0 -- -- 98
2018-01-01 04:00:00 6.5 0 Calma 4 Noroeste 0 -- -- 98
2018-01-01 03:00:00 7.3 0 Calma 7 Noroeste 0 -- -- 97
2018-01-01 02:00:00 8.1 2 Oeste 4 Noroeste 0 -- -- 98
2018-01-01 01:00:00 8.4 3 Oeste 6 Noroeste 0 -- -- 98
2018-01-01 00:00:00 9.1 0 Calma 6 Sudoeste 0 -- -- 98
2017-12-31 23:00:00 9.9 3 Oeste 12 Noroeste 0 -- -- 98
2017-12-31 22:00:00 10.6 6 Oeste 13 Oeste 0 -- -- 98
2017-12-31 21:00:00 10.8 2 Sudoeste 6 Sudoeste 0.2 -- -- 98
2017-12-31 20:00:00 11 0 Calma 7 Oeste 0 -- -- 98
2017-12-31 19:00:00 10.7 0 Calma 6 Oeste 0 -- -- 98
2017-12-31 18:00:00 10.8 0 Calma 8 Sudoeste 0 -- -- 98
2017-12-31 17:00:00 10.9 3 Sudoeste 17 Noroeste 0 -- -- 98
2017-12-31 16:00:00 10.5 5 Oeste 16 Oeste 0 -- -- 98
2017-12-31 15:00:00 10 3 Sudoeste 7 Oeste 0 -- -- 98
2017-12-31 14:00:00 9.7 2 Sudoeste 10 Noroeste 0 -- -- 97
2017-12-31 13:00:00 9.6 0 Calma 6 Oeste 0 -- -- 97
2017-12-31 12:00:00 8.8 0 Calma 4 Sudeste 0 -- -- 96
2017-12-31 11:00:00 8 0 Calma 5 Sudeste 0 -- -- 97
2017-12-31 10:00:00 7.3 0 Calma 4 Noroeste 0 -- -- 98
2017-12-31 09:00:00 6.6 0 Calma 2 Noroeste 0 -- -- 97
2017-12-31 08:00:00 6.6 0 Calma 5 Este 0 -- -- 97
2017-12-31 07:00:00 6.7 0 Calma 0 Calma 0 -- -- 97
2017-12-31 06:00:00 7.2 0 Calma 3 Norte 0 -- -- 97
2017-12-31 05:00:00 7 0 Calma 3 Este 0 -- -- 97
2017-12-31 04:00:00 7.2 0 Calma 2 Norte 0 -- -- 97
2017-12-31 03:00:00 7.6 0 Calma 2 Nordeste 0 -- -- 96
2017-12-31 02:00:00 8.2 2 Norte 4 Norte 0 -- -- 95
2017-12-31 01:00:00 8.7 0 Calma 6 Nordeste 0 -- -- 95